Date,TemperatureHighF,TemperatureAvgF,TemperatureLowF,DewpointHighF,DewpointAvgF,DewpointLowF,HumidityHigh,HumidityAvg,HumidityLow,PressureMaxIn,PressureMinIn,WindSpeedMaxMPH,WindSpeedAvgMPH,GustSpeedMaxMPH,PrecipitationSumIn
2014-1-6,-8.9,-12.1,-13.6,-19.0,-20.0,-21.0,75,68,56,30.43,30.41,5,1,10,0.00
2014-1-7,4.9,-5.6,-13.8,-8.0,-13.2,-19.0,77,70,52,30.49,30.39,7,1,10,0.00
2014-1-8,10.8,0.1,-10.4,-2.0,-7.1,-15.0,85,73,56,30.70,30.48,5,0,6,0.00
2014-1-9,21.5,4.7,-10.8,20.0,0.4,-14.0,93,82,65,30.70,30.26,9,2,14,0.00
2014-1-10,34.9,29.6,21.6,34.0,28.7,20.0,98,96,93,30.26,29.58,9,3,16,0.15
2014-1-11,34.7,31.1,27.1,34.0,29.2,25.0,97,92,88,29.89,29.56,3,1,9,0.01
2014-1-12,43.5,34.8,26.4,33.0,29.0,24.0,94,80,60,29.90,29.63,19,6,27,0.00
2014-1-13,42.5,35.0,26.9,34.0,28.8,22.0,88,78,58,29.84,29.63,6,1,13,0.00
2014-1-14,33.5,26.3,15.2,32.0,23.2,11.0,96,88,79,30.11,29.60,16,4,24,0.00
2014-1-15,19.5,13.2,8.5,15.0,7.6,4.0,85,78,64,30.25,29.81,15,3,27,0.01
2014-1-16,33.8,23.7,11.4,32.0,18.2,3.0,94,79,65,29.89,29.55,10,4,22,0.02
2014-1-17,21.1,12.9,6.6,12.0,6.9,2.0,89,77,67,30.14,29.89,4,1,9,0.00
2014-1-18,17.3,10.9,4.6,14.0,7.7,1.0,91,86,82,30.09,29.90,15,2,15,0.00
2014-1-19,35.4,26.5,11.5,30.0,21.2,9.0,92,81,67,30.01,29.63,12,3,15,0.12
2014-1-20,34.5,21.8,6.5,29.0,16.6,-2.0,90,80,65,30.39,29.78,14,4,22,0.00
2014-1-21,6.7,1.3,-5.6,-2.0,-7.8,-11.0,78,66,52,30.55,30.32,9,2,15,0.00
2014-1-22,12.9,5.1,-2.9,6.0,-2.5,-11.0,82,71,57,30.47,30.08,7,2,18,0.00
2014-1-23,7.9,-1.6,-7.9,-5.0,-10.2,-14.0,79,67,53,30.80,30.47,5,2,11,0.00
2014-1-24,31.2,15.1,-7.5,29.0,7.9,-12.0,93,73,61,30.65,29.56,18,7,29,0.00
2014-1-25,32.0,14.9,4.5,30.0,1.4,-7.0,93,56,41,30.00,29.57,11,3,20,0.00
2014-1-26,27.1,12.2,1.0,20.0,6.4,-6.0,89,78,51,30.08,29.54,10,3,19,0.01
2014-1-27,0.9,-5.5,-11.3,-6.0,-14.8,-18.0,74,64,49,30.62,30.09,7,2,14,0.00
2014-1-28,4.7,-4.9,-14.8,-8.0,-13.1,-20.0,80,69,51,30.62,30.38,7,2,12,0.00
2014-1-29,25.7,11.6,-2.9,12.0,0.7,-9.0,78,63,46,30.38,29.95,21,6,32,0.00
2014-1-30,31.4,26.4,14.0,27.0,18.0,9.0,92,72,54,30.11,29.66,20,7,28,0.00
2014-1-31,13.5,7.5,3.3,9.0,-1.0,-5.0,82,69,54,30.34,30.11,4,1,7,0.00
2014-2-1,22.3,13.5,2.3,17.0,9.0,-5.0,88,82,73,30.30,30.12,5,1,7,0.04
2014-2-2,17.6,9.6,1.5,10.0,2.3,-4.0,90,73,52,30.50,30.30,5,1,8,0.02
2014-2-3,19.7,7.5,-9.5,7.0,-0.1,-14.0,86,72,56,30.54,30.46,10,2,15,0.00
2014-2-4,18.7,13.9,5.4,11.0,6.8,2.0,86,74,64,30.60,30.40,10,2,15,0.00
2014-2-5,18.6,13.1,0.7,12.0,7.4,-4.0,89,78,66,30.63,30.39,8,2,13,0.39
2014-2-6,10.0,0.5,-7.4,-3.0,-6.5,-11.0,85,73,55,30.62,30.51,6,1,11,0.00
2014-2-7,14.3,5.5,-2.4,1.0,-2.8,-7.0,81,70,51,30.51,30.43,7,3,14,0.00
2014-2-8,15.2,7.9,0.0,10.0,4.0,-4.0,90,84,79,30.46,30.29,6,1,9,0.00
2014-2-9,20.4,8.9,-0.2,9.0,2.3,-7.0,90,75,55,30.52,30.31,5,1,14,0.02
2014-2-10,12.1,1.9,-6.7,-3.0,-6.9,-11.0,84,68,50,30.68,30.52,4,1,8,0.00
2014-2-11,13.9,1.5,-12.2,-2.0,-7.2,-16.0,84,68,50,30.70,30.49,11,3,15,0.00
2014-2-12,18.5,12.7,3.2,12.0,7.4,-4.0,91,79,66,30.49,30.13,14,3,19,0.00
2014-2-13,32.4,21.0,11.0,27.0,16.3,8.0,91,82,73,30.12,29.61,15,4,22,0.00
2014-2-14,22.7,13.4,6.7,10.0,6.5,3.0,87,74,58,30.18,29.81,5,1,11,0.00
2014-2-15,19.6,11.9,-0.8,13.0,5.9,-4.0,89,77,58,30.23,30.08,12,2,16,0.00
2014-2-16,25.8,18.7,13.9,15.0,12.1,9.0,92,76,56,30.40,30.12,9,2,17,0.01
2014-2-17,27.0,23.2,18.6,24.0,20.1,14.0,93,87,79,30.35,29.85,17,5,29,0.00
2014-2-18,46.7,34.6,22.4,30.0,26.8,21.0,93,75,53,30.02,29.70,18,4,28,0.01
2014-2-19,47.0,37.3,28.8,30.0,26.1,22.0,87,66,41,30.03,29.80,10,2,14,0.00
2014-2-20,36.9,35.5,34.1,35.0,31.4,27.0,94,85,68,29.96,29.63,8,3,15,0.11
2014-2-21,28.1,22.9,18.4,17.0,13.9,12.0,77,69,60,29.93,29.67,11,3,18,0.00
2014-2-22,29.9,20.0,11.9,14.0,9.8,6.0,77,66,46,30.25,29.94,6,2,12,0.00
2014-2-23,26.1,15.5,8.3,9.0,5.1,2.0,77,65,44,30.39,30.26,8,1,14,0.00
2014-2-24,25.2,15.5,7.6,7.0,4.5,2.0,78,63,43,30.45,30.38,7,1,13,0.00
2014-2-25,16.4,9.5,0.2,7.0,-0.1,-6.0,87,67,44,30.44,30.33,6,1,12,0.00
2014-2-26,-0.1,-0.5,-0.9,-6.0,-6.6,-7.0,76,75,75,30.45,30.44,2,0,6,0.00
2014-3-4,23.4,20.5,16.7,15.0,10.8,7.0,90,67,56,30.42,30.33,5,2,10,0.03
2014-3-5,22.2,16.5,8.5,14.0,10.6,4.0,91,78,60,30.63,30.44,12,4,17,0.00
2014-3-6,28.8,17.0,2.8,17.0,10.2,0.0,90,75,60,30.61,30.16,12,4,16,0.00
2014-3-7,43.1,33.1,20.1,32.0,25.7,15.0,83,75,62,30.18,29.96,12,4,18,0.06
2014-3-8,34.7,30.0,23.1,29.0,21.1,15.0,83,70,53,30.38,30.18,10,2,15,0.00
2014-3-9,42.2,31.4,17.9,35.0,23.3,14.0,86,73,59,30.36,29.85,15,5,28,0.00
2014-3-10,62.6,49.3,39.9,39.0,36.1,34.0,79,62,41,29.85,29.71,5,1,13,0.00
2014-3-11,45.2,40.1,35.3,37.0,34.7,30.0,96,82,62,29.94,29.75,13,2,15,0.07
2014-3-12,37.2,29.4,19.2,30.0,19.9,10.0,93,70,43,30.24,29.91,11,3,19,0.06
2014-3-13,44.2,30.4,15.7,37.0,22.6,9.0,83,73,65,30.23,29.83,14,6,21,0.00
2014-3-14,51.6,43.8,35.2,37.0,32.6,27.0,78,65,48,29.97,29.63,18,4,26,0.00
2014-3-15,36.9,32.1,25.8,27.0,20.3,16.0,80,63,49,30.42,29.98,11,2,14,0.00
2014-3-16,28.8,20.0,11.4,22.0,9.9,2.0,81,65,54,30.58,30.31,13,4,24,0.00
2014-3-17,36.2,25.3,13.9,25.0,15.0,9.0,82,67,46,30.31,29.85,14,5,25,0.00
2014-3-18,44.9,37.2,29.8,35.0,30.2,25.0,93,76,60,29.92,29.79,13,5,18,0.06
2014-3-19,36.9,34.4,32.7,35.0,31.5,25.0,97,89,73,30.11,29.71,6,1,13,0.13
2014-3-20,46.0,36.8,28.0,29.0,25.8,23.0,92,67,43,30.18,30.10,5,1,10,0.00
2014-3-21,53.5,40.0,28.5,40.0,31.0,23.0,81,71,57,30.11,29.81,14,3,22,0.00
2014-3-22,38.0,30.5,19.1,29.0,18.4,8.0,80,62,41,30.55,30.05,8,3,23,0.00
2014-3-23,29.2,20.8,12.9,9.0,6.6,5.0,72,55,39,30.64,30.52,8,2,15,0.00
2014-3-24,36.9,26.5,17.3,26.0,15.7,9.0,91,65,41,30.54,30.20,9,2,14,0.00
2014-3-25,26.1,21.3,17.1,19.0,7.8,2.0,76,57,40,30.39,30.18,8,2,17,0.02
2014-3-26,38.7,26.8,14.1,24.0,14.3,6.0,75,60,48,30.43,29.97,19,7,30,0.00
2014-3-27,46.3,39.7,35.0,45.0,35.6,24.0,97,86,53,29.97,29.48,21,8,26,0.32
2014-3-28,43.5,36.7,32.2,39.0,31.2,28.0,97,81,60,30.29,29.54,10,3,15,0.04
2014-3-29,48.3,39.3,32.3,30.0,28.5,26.0,90,67,46,30.40,30.30,10,2,14,0.00
2014-3-30,58.8,45.2,31.2,40.0,31.6,21.0,72,60,42,30.35,30.04,18,9,25,0.00
2014-3-31,65.2,54.6,46.3,47.0,40.9,37.0,73,61,44,30.06,29.65,23,11,41,0.00
2014-4-1,48.7,34.7,25.3,38.0,24.7,19.0,83,68,49,30.22,29.68,13,3,26,0.00
2014-4-2,51.0,37.6,23.5,31.0,25.4,21.0,95,65,36,30.32,30.19,10,3,19,0.00
2014-4-3,39.5,37.5,35.3,33.0,28.1,22.0,88,69,55,30.18,29.79,19,5,25,0.01
2014-4-4,37.5,35.2,33.6,35.0,31.7,28.0,97,87,75,30.16,29.59,10,2,19,0.08
2014-4-5,53.5,41.3,28.3,32.0,27.7,26.0,91,62,38,30.31,30.16,8,2,13,0.00
2014-4-6,61.0,49.2,39.5,39.0,33.9,28.0,70,57,42,30.21,30.00,16,7,21,0.00
2014-4-7,59.4,49.9,42.7,46.0,39.5,34.0,93,69,52,30.00,29.75,6,1,15,0.05
2014-4-8,58.6,48.5,38.2,40.0,34.5,29.0,90,62,32,30.07,29.80,13,1,18,0.00
2014-4-9,62.9,50.7,31.9,33.0,30.3,28.0,84,49,29,30.11,29.79,25,5,31,0.00
2014-4-10,64.6,57.3,50.4,39.0,28.7,17.0,59,36,17,30.04,29.69,24,4,30,0.00
2014-4-11,70.3,55.7,42.2,39.0,29.6,21.0,64,38,24,30.11,30.00,9,2,17,0.01
2014-4-12,62.1,51.4,45.1,50.0,41.3,32.0,95,70,57,30.08,29.74,14,4,30,0.23
2014-4-13,53.4,47.9,42.6,53.0,47.1,41.0,98,97,94,29.88,29.63,11,3,27,2.70
2014-4-14,41.8,32.2,27.6,41.0,29.5,24.0,98,89,80,30.17,29.63,18,2,26,0.23
2014-4-15,37.3,29.8,20.9,26.0,19.3,16.0,94,67,44,30.31,30.17,4,1,9,0.07
2014-4-16,52.6,41.5,29.1,32.0,26.0,17.0,70,55,44,30.32,30.09,24,10,34,0.00
2014-4-17,55.5,46.3,36.8,39.0,35.2,30.0,85,67,51,30.41,30.06,24,4,30,0.00
2014-4-18,55.9,43.4,30.4,34.0,29.7,23.0,96,64,28,30.50,30.41,10,2,14,0.00
2014-4-19,67.6,52.0,34.6,39.0,32.4,25.0,74,50,34,30.48,30.24,20,6,27,0.00
2014-4-20,74.0,62.9,54.9,55.0,45.3,36.0,84,54,38,30.24,30.03,20,6,25,0.01
2014-4-21,71.1,62.1,54.1,60.0,52.7,34.0,93,73,45,30.06,29.88,8,1,23,0.07
2014-4-22,58.8,50.2,40.5,35.0,29.6,25.0,67,47,29,30.20,30.00,9,3,18,0.00
2014-4-23,53.4,46.1,37.0,37.0,28.7,24.0,80,53,33,30.28,30.10,9,3,15,0.08
2014-4-24,55.1,45.7,37.2,49.0,41.6,33.0,97,86,66,30.17,29.76,15,4,24,0.50
2014-4-25,69.2,55.1,40.8,48.0,40.3,34.0,97,63,30,29.93,29.80,5,1,14,0.00
2014-4-26,56.3,47.1,39.1,40.0,33.5,30.0,78,61,40,30.14,29.93,15,5,23,0.00
2014-4-27,50.1,44.4,41.0,41.0,37.3,29.0,92,77,57,30.15,29.84,16,5,29,0.53
2014-4-28,47.6,44.4,41.1,43.0,41.0,38.0,93,87,71,29.89,29.67,17,5,27,0.75
2014-4-29,46.3,43.7,40.2,46.0,42.4,39.0,98,95,88,29.71,29.60,13,3,22,0.11
2014-4-30,46.1,43.9,41.2,45.0,41.3,38.0,98,91,79,29.83,29.71,7,3,18,0.05
2014-5-1,50.7,44.3,39.5,44.0,41.0,37.0,97,88,76,29.92,29.73,6,1,9,0.00
2014-5-2,54.4,48.5,44.3,46.0,43.0,41.0,92,82,62,29.92,29.73,11,2,11,0.05
2014-5-3,66.6,54.8,43.8,45.0,39.9,33.0,96,61,33,29.99,29.73,16,2,17,0.00
2014-5-4,60.6,52.3,45.1,36.0,28.6,21.0,68,42,23,30.17,29.99,13,3,18,0.00
2014-5-5,60.7,51.3,43.7,37.0,33.3,29.0,70,52,37,30.14,30.02,14,4,24,0.00
2014-5-6,66.0,53.6,41.3,42.0,36.9,32.0,73,55,40,30.13,29.95,16,4,23,0.00
2014-5-7,62.9,56.0,49.5,50.0,44.1,36.0,81,65,57,29.96,29.83,11,4,19,0.00
2014-5-8,79.6,69.2,52.4,65.0,59.7,49.0,91,73,54,29.86,29.72,19,5,28,0.00
2014-5-9,71.3,59.7,51.5,61.0,50.8,45.0,87,73,63,29.92,29.66,16,4,29,0.00
2014-5-10,75.3,60.2,42.6,49.0,44.3,40.0,96,60,31,30.03,29.92,6,1,13,0.00
2014-5-11,76.3,66.5,58.6,65.0,56.2,45.0,95,71,55,29.98,29.89,9,4,16,0.17
2014-5-12,76.4,68.2,62.7,71.0,63.7,58.0,97,86,54,29.93,29.77,22,6,28,1.05
2014-5-13,65.4,54.1,47.3,63.0,48.5,41.0,95,82,65,30.26,29.83,12,1,17,0.03
2014-5-14,58.6,51.4,41.8,42.0,36.2,31.0,86,59,37,30.34,30.15,10,2,17,0.00
2014-5-15,55.3,49.3,42.9,39.0,34.6,31.0,79,58,43,30.15,30.08,12,3,20,0.00
2014-5-16,52.6,46.7,39.1,32.0,28.6,26.0,67,50,37,30.18,30.13,11,2,16,0.00
2014-5-17,63.0,52.7,38.6,35.0,31.4,27.0,78,48,26,30.22,30.15,7,2,13,0.00
2014-5-18,73.0,61.4,48.7,39.0,35.3,33.0,55,39,25,30.26,30.18,11,4,18,0.00
2014-5-19,63.9,57.4,50.6,51.0,46.0,39.0,88,67,49,30.24,29.91,21,7,36,0.12
2014-5-20,87.9,74.2,61.8,65.0,59.2,50.0,86,62,37,29.94,29.84,16,3,23,0.00
2014-5-21,86.0,72.3,58.7,64.0,54.5,44.0,94,58,24,30.10,29.85,7,1,13,0.00
2014-5-22,74.9,63.2,50.7,50.0,46.6,43.0,86,58,33,30.23,30.10,7,1,10,0.00
2014-5-23,75.0,63.2,49.1,48.0,45.9,43.0,87,56,35,30.31,30.23,7,2,13,0.00
2014-5-24,75.1,64.4,48.9,49.0,44.8,40.0,87,52,28,30.31,30.18,9,2,15,0.00
2014-5-25,82.1,70.0,52.4,58.0,51.2,46.0,82,54,33,30.20,30.03,12,3,16,0.00
2014-5-26,87.3,76.0,68.5,69.0,65.0,58.0,86,70,48,30.06,29.94,7,3,14,0.00
2014-5-27,86.2,73.9,64.9,68.0,65.7,63.0,96,78,49,30.00,29.89,7,2,22,0.98
2014-5-28,75.2,65.6,56.8,63.0,53.0,47.0,96,67,42,30.16,29.97,8,2,17,0.04
2014-5-29,82.1,68.6,53.2,60.0,54.9,50.0,90,64,41,30.22,30.12,12,2,15,0.00
2014-5-30,85.0,71.4,54.3,61.0,55.5,51.0,95,61,36,30.26,30.16,10,2,12,0.00
2014-5-31,86.8,74.6,58.5,66.0,55.8,50.0,80,54,34,30.24,30.04,11,3,19,0.00
2014-6-1,86.5,74.5,67.9,71.0,67.2,64.0,96,79,52,30.09,29.84,14,5,22,0.66
2014-6-2,80.9,72.7,65.2,69.0,65.7,59.0,97,80,59,29.86,29.77,13,3,22,0.43
2014-6-3,77.7,69.1,60.2,59.0,55.2,52.0,81,63,43,30.05,29.87,7,1,10,0.00
2014-6-4,71.0,65.7,59.2,61.0,58.2,55.0,93,77,65,30.01,29.86,7,1,15,0.03
2014-6-5,77.4,66.6,53.3,63.0,52.5,46.0,98,66,35,30.07,29.98,7,2,14,0.01
2014-6-6,81.5,72.0,61.0,61.0,54.8,47.0,79,55,45,30.06,29.98,9,3,12,0.00
2014-6-7,79.0,68.2,60.7,64.0,58.0,49.0,96,72,53,30.04,29.93,9,2,13,0.21
2014-6-8,73.7,64.2,57.2,59.0,51.8,45.0,96,68,40,30.15,30.02,9,2,15,0.00
2014-6-9,77.1,66.0,53.8,59.0,51.8,46.0,84,62,41,30.13,29.99,7,2,14,0.00
2014-6-10,69.4,65.0,59.3,59.0,54.0,48.0,79,68,59,30.03,29.91,9,2,12,0.00
2014-6-11,77.4,67.7,60.8,60.0,56.9,54.0,83,69,50,29.91,29.80,7,2,16,0.00
2014-6-12,73.8,65.8,56.2,64.0,55.3,46.0,93,70,51,29.99,29.79,7,1,11,0.00
2014-6-13,75.3,63.7,50.5,49.0,45.0,41.0,81,54,31,30.11,29.99,4,1,10,0.00
2014-6-14,76.4,67.0,52.6,53.0,48.7,46.0,85,55,35,30.13,29.94,15,4,23,0.00
2014-6-15,83.2,72.3,64.1,65.0,57.7,48.0,74,61,48,29.97,29.73,23,8,32,0.00
2014-6-16,84.7,75.1,61.5,71.0,62.2,58.0,93,66,45,30.08,29.83,17,3,22,0.84
2014-6-17,84.0,73.8,64.9,71.0,66.6,64.0,97,80,54,29.93,29.75,10,2,22,0.16
2014-6-18,78.2,71.5,64.2,71.0,66.9,63.0,96,86,73,30.06,29.86,10,2,17,0.78
2014-6-19,73.9,68.2,63.8,68.0,65.8,63.0,97,92,81,30.17,30.04,15,3,18,1.12
2014-6-20,83.8,73.6,66.6,73.0,67.7,65.0,98,83,54,30.06,29.97,4,0,9,0.05
2014-6-21,80.2,72.7,65.2,71.0,67.7,64.0,96,84,70,30.00,29.91,8,1,11,0.01
2014-6-22,83.0,71.3,62.0,72.0,66.4,61.0,98,85,60,29.98,29.88,5,1,11,0.01
2014-6-23,84.5,73.3,64.5,69.0,66.8,64.0,98,81,55,29.92,29.85,2,0,7,0.00
2014-6-24,85.4,74.9,65.0,69.0,65.2,62.0,97,74,48,29.97,29.90,2,0,7,0.00
2014-6-25,81.1,70.4,64.8,69.0,64.7,61.0,96,83,61,30.10,29.97,5,1,23,0.00
2014-6-26,79.0,70.6,62.5,68.0,65.0,61.0,96,83,67,30.14,30.01,7,2,10,0.00
2014-6-27,83.7,75.7,67.1,72.0,67.9,62.0,87,77,65,30.05,29.92,15,6,20,0.00
2014-6-28,83.4,76.1,67.9,74.0,70.5,66.0,93,83,70,30.02,29.86,17,6,21,0.15
2014-6-29,79.9,73.1,65.4,72.0,67.9,64.0,96,84,69,29.98,29.82,12,4,21,1.75
2014-6-30,85.2,71.0,64.6,76.0,68.3,63.0,97,91,72,29.87,29.63,10,4,17,0.64
2014-7-1,78.5,68.5,62.6,67.0,63.1,58.0,97,83,63,29.85,29.68,8,2,15,0.04
2014-7-2,66.0,61.2,56.0,59.0,57.1,55.0,96,86,77,30.12,29.95,4,0,10,0.01
2014-7-3,75.4,64.0,51.4,57.0,52.9,48.0,98,71,39,30.28,30.12,3,0,8,0.01
2014-7-4,78.4,67.4,53.2,60.0,53.5,49.0,91,64,38,30.39,30.29,6,1,10,0.00
2014-7-5,73.7,67.2,60.4,63.0,58.5,53.0,86,74,64,30.31,30.08,12,5,19,0.00
2014-7-6,81.2,72.5,63.4,75.0,68.6,61.0,94,87,82,30.08,29.73,9,3,21,0.00
2014-7-7,84.8,75.6,64.5,70.0,67.0,63.0,95,76,51,29.83,29.69,13,1,16,0.39
2014-7-8,77.3,69.4,62.3,66.0,62.4,59.0,98,80,56,29.91,29.66,11,1,11,0.08
2014-7-9,75.5,66.6,56.9,61.0,56.6,52.0,97,72,46,30.13,29.91,4,0,8,0.00
2014-7-10,79.5,68.1,54.1,65.0,59.6,53.0,96,76,58,30.22,30.13,12,3,13,0.00
2014-7-11,75.1,69.6,64.6,65.0,61.7,59.0,83,76,67,30.24,30.11,14,6,21,0.00
2014-7-12,76.5,71.8,66.0,73.0,68.3,64.0,98,89,78,30.13,29.91,9,1,13,0.11
2014-7-13,81.8,71.0,62.3,71.0,62.3,51.0,98,76,51,30.00,29.94,6,0,9,0.01
2014-7-14,75.5,64.4,54.5,60.0,54.1,49.0,95,71,49,29.98,29.91,3,1,12,0.00
2014-7-15,68.1,58.3,52.6,59.0,54.8,51.0,96,88,66,30.09,29.98,4,0,10,0.11
2014-7-16,71.9,61.5,50.0,60.0,53.7,50.0,98,78,51,30.13,30.08,4,0,8,0.01
2014-7-17,76.3,64.1,49.4,62.0,53.6,49.0,98,72,41,30.19,30.12,5,1,7,0.00
2014-7-18,77.6,68.9,57.5,64.0,58.0,54.0,91,70,50,30.21,30.12,7,2,12,0.00
2014-7-19,78.2,70.3,62.1,64.0,61.0,59.0,89,74,56,30.14,30.05,10,4,12,0.00
2014-7-20,80.7,72.1,63.8,66.0,62.8,57.0,84,73,59,30.10,30.02,13,4,15,0.00
2014-7-21,69.7,68.8,67.7,64.0,63.9,63.0,86,84,82,30.05,30.04,8,4,10,0.00
2014-7-22,92.6,84.0,72.5,79.0,73.9,65.0,81,72,62,30.10,29.94,5,1,14,0.00
2014-7-23,78.1,70.4,60.8,65.0,59.3,56.0,93,70,49,30.27,30.11,7,1,14,0.00
2014-7-24,79.3,67.7,55.3,61.0,56.2,52.0,90,68,45,30.26,30.05,7,2,13,0.00
2014-7-25,69.2,65.7,61.1,64.0,60.3,56.0,88,82,72,30.11,29.93,11,5,20,0.03
2014-7-26,78.7,71.2,63.7,73.0,67.8,62.0,96,89,80,29.95,29.84,7,1,13,0.01
2014-7-27,77.5,70.8,63.1,71.0,64.1,58.0,96,80,57,30.07,29.82,5,1,12,0.07
2014-7-28,73.7,63.8,52.3,57.0,54.4,51.0,96,73,51,30.22,30.07,4,0,13,0.00
2014-7-29,79.7,65.7,55.5,63.0,57.8,53.0,96,78,48,30.16,30.08,7,0,9,0.17
2014-7-30,78.3,66.8,56.8,64.0,57.6,51.0,98,75,40,30.14,30.08,2,0,8,0.00
2014-7-31,82.9,70.5,58.1,67.0,60.7,57.0,96,73,47,30.11,30.06,6,0,8,0.00
2014-8-1,84.0,70.4,58.3,65.0,60.0,55.0,96,72,46,30.18,30.09,13,1,18,0.00
2014-8-2,82.6,66.1,57.2,67.0,59.1,56.0,96,77,53,30.23,30.14,3,0,5,0.00
2014-8-3,87.0,74.6,61.9,69.0,64.4,61.0,97,73,46,30.21,30.10,4,0,8,0.00
2014-8-4,83.9,69.4,63.4,70.0,64.7,62.0,97,86,61,30.15,30.06,7,1,16,0.39
2014-8-5,74.7,67.0,63.4,67.0,64.4,63.0,98,91,74,30.17,30.10,3,0,7,0.00
2014-8-6,79.3,69.1,59.9,69.0,62.8,59.0,99,82,56,30.17,30.11,3,0,7,0.01
2014-8-7,80.7,69.9,58.0,62.0,58.9,56.0,96,70,46,30.18,30.09,6,1,14,0.00
2014-8-8,81.1,70.3,58.6,63.0,58.6,55.0,90,68,48,30.17,30.11,11,2,17,0.00
2014-8-9,80.9,70.5,59.7,65.0,58.8,55.0,90,68,47,30.20,30.12,7,1,11,0.00
2014-8-10,80.8,69.6,57.3,69.0,61.8,55.0,95,77,57,30.17,30.05,5,0,11,0.00
2014-8-11,83.0,69.4,61.6,69.0,63.5,60.0,96,82,60,30.05,29.90,4,1,10,0.00
2014-8-12,75.5,66.3,56.8,59.0,55.1,53.0,87,69,48,30.08,29.95,7,1,16,0.00
2014-8-13,84.3,68.8,55.6,64.0,57.8,52.0,92,70,43,30.14,30.07,5,0,10,0.00
2014-8-14,75.6,64.7,54.2,56.0,52.6,49.0,94,67,42,30.22,30.11,5,1,9,0.00
2014-8-15,78.8,66.2,51.2,65.0,58.7,50.0,96,78,54,30.14,30.00,7,2,11,0.00
2014-8-16,84.9,72.5,62.2,70.0,66.3,61.0,97,82,60,30.00,29.91,6,1,8,0.00
2014-8-17,76.9,69.4,61.9,68.0,64.7,61.0,96,85,70,30.09,29.98,9,2,16,0.00
2014-8-18,82.4,72.3,62.7,71.0,66.9,61.0,95,84,69,30.00,29.75,13,4,16,0.00
2014-8-19,83.6,73.3,64.9,71.0,66.3,64.0,96,80,55,29.84,29.71,7,1,15,0.20
2014-8-20,85.4,73.7,62.3,73.0,67.0,61.0,97,81,58,29.98,29.84,3,0,7,0.00
2014-8-21,78.4,71.9,67.6,74.0,70.0,67.0,98,93,85,30.01,29.91,16,2,22,0.28
2014-8-22,90.1,78.9,71.0,78.0,74.0,70.0,98,86,63,30.01,29.92,7,1,10,0.00
2014-8-23,79.3,75.6,71.5,76.0,74.2,70.0,98,95,89,30.04,29.95,5,1,9,0.16
2014-8-24,85.7,77.1,69.4,78.0,73.6,69.0,97,89,76,30.04,29.96,12,4,17,0.01
2014-8-25,79.5,74.6,67.2,77.0,72.4,66.0,98,93,82,30.10,29.96,10,3,25,1.61
2014-8-26,78.2,70.2,64.3,71.0,63.7,60.0,98,81,55,30.23,30.06,4,0,9,0.01
2014-8-27,77.3,67.6,59.8,64.0,60.7,58.0,95,80,59,30.26,30.16,3,0,9,0.00
2014-8-28,72.6,66.1,58.0,65.0,60.9,57.0,98,84,71,30.22,30.06,11,2,13,0.01
2014-8-29,84.4,74.0,64.5,74.0,68.8,59.0,97,84,68,30.06,29.83,13,5,25,0.05
2014-8-30,80.3,72.6,68.0,72.0,68.8,67.0,97,88,70,29.95,29.81,9,1,16,0.10
2014-8-31,83.4,73.2,62.3,72.0,67.8,62.0,99,84,65,29.98,29.81,13,4,20,0.01
2014-9-1,78.5,70.8,65.4,71.0,64.8,60.0,93,81,66,29.91,29.68,16,2,22,0.02
2014-9-2,79.3,67.6,57.4,64.0,59.8,56.0,98,78,46,30.02,29.91,3,0,6,0.01
2014-9-3,80.9,70.5,57.9,68.0,62.9,57.0,97,78,60,30.07,29.89,15,4,22,0.00
2014-9-4,82.5,75.6,67.9,76.0,70.9,67.0,96,85,74,29.95,29.85,18,7,34,1.33
2014-9-5,80.2,69.9,56.7,75.0,63.3,54.0,93,80,63,30.20,29.88,10,2,17,0.00
2014-9-6,76.2,62.8,51.0,58.0,53.5,50.0,98,74,50,30.29,30.21,5,0,6,0.00
2014-9-7,78.9,64.9,51.2,62.0,54.9,50.0,97,73,42,30.28,30.17,4,1,7,0.00
2014-9-8,72.6,65.2,56.1,60.0,56.5,53.0,91,74,54,30.18,30.02,10,3,18,0.00
2014-9-9,77.9,68.9,59.9,67.0,62.2,57.0,95,80,61,30.02,29.84,11,3,18,0.12
2014-9-10,72.9,68.0,62.7,71.0,66.6,61.0,98,95,90,29.83,29.54,13,3,18,0.19
2014-9-11,54.1,49.9,45.7,48.0,44.6,42.0,93,81,71,30.42,0.00,3,1,10,0.01
2014-9-12,45.5,43.8,40.6,44.0,42.8,40.0,97,96,92,30.52,30.42,4,0,9,0.24
2014-9-13,59.0,47.8,39.5,47.0,40.8,37.0,98,80,45,30.50,30.38,7,1,11,0.00
2014-9-14,66.5,55.1,42.2,50.0,45.6,40.0,94,71,54,30.41,30.21,11,4,15,0.00
2014-9-15,56.2,52.2,46.8,53.0,49.5,46.0,97,90,74,30.31,30.21,2,0,7,0.21
2014-9-16,65.9,52.4,40.1,52.0,45.7,39.0,98,81,49,30.33,30.17,3,0,7,0.01
2014-9-17,70.4,55.5,41.9,55.0,49.0,41.0,98,81,51,30.16,30.05,5,0,9,0.00
2014-9-18,66.8,56.0,47.9,58.0,52.8,47.0,98,90,72,30.27,30.13,6,1,11,0.01
2014-9-19,72.3,62.4,51.3,58.0,54.1,50.0,97,77,55,30.22,29.91,17,7,27,0.00
2014-9-20,77.2,68.4,60.7,68.0,63.4,58.0,96,84,68,29.93,29.79,22,3,22,0.14
2014-9-21,65.7,57.4,48.7,59.0,51.4,45.0,96,81,57,30.28,29.84,6,1,11,0.01
2014-9-22,69.6,55.7,41.5,55.0,48.2,40.0,96,78,54,30.39,30.29,3,0,8,0.00
2014-9-23,73.6,60.3,46.7,59.0,51.1,45.0,97,75,47,30.41,30.32,8,2,10,0.00
2014-9-24,69.0,61.6,55.9,57.0,52.9,50.0,88,74,60,30.40,30.30,13,3,13,0.00
2014-9-25,77.5,65.1,56.9,61.0,54.5,51.0,94,71,40,30.36,30.27,8,1,12,0.00
2014-9-26,79.0,66.1,52.3,62.0,55.6,51.0,95,71,45,30.34,30.25,10,2,12,0.00
2014-9-27,81.7,69.4,57.9,61.0,57.5,53.0,88,68,46,30.32,30.20,6,1,9,0.00
2014-9-29,81.8,63.3,51.5,64.0,54.7,49.0,92,72,50,30.13,0.00,12,2,16,0.00
2014-9-30,51.4,47.0,43.5,49.0,43.5,41.0,93,88,79,30.18,30.11,9,2,15,0.00
2014-10-1,69.7,58.8,44.2,59.0,52.5,42.0,94,80,66,30.11,29.92,12,4,16,0.00
2014-10-2,69.7,63.9,58.4,65.0,60.8,56.0,95,89,80,29.93,29.67,12,3,17,0.05
2014-10-3,59.8,49.4,40.8,58.0,44.5,32.0,97,84,66,29.89,29.66,7,1,12,0.17
2014-10-4,48.6,40.9,34.7,42.0,36.3,31.0,98,84,68,29.84,29.75,5,1,11,0.11
2014-10-5,54.4,44.6,34.6,40.0,35.1,31.0,89,71,47,29.82,29.69,6,1,9,0.00
2014-10-6,58.7,51.1,44.2,43.0,38.8,33.0,89,65,39,29.69,29.64,10,2,15,0.00
2014-10-7,65.9,55.0,48.2,47.0,43.2,40.0,84,66,47,29.93,29.64,10,1,15,0.00
2014-10-8,66.5,53.8,41.7,42.0,38.6,36.0,85,59,36,30.13,29.93,6,1,12,0.00
2014-10-9,58.9,48.6,39.7,38.0,35.2,32.0,85,62,39,30.27,30.14,2,0,5,0.00
2014-10-10,57.5,46.4,34.2,40.0,34.9,32.0,96,67,39,30.36,30.26,6,1,9,0.00
2014-10-11,60.7,46.2,30.9,41.0,35.1,30.0,97,69,39,30.39,30.22,6,1,9,0.00
2014-10-12,59.6,50.7,41.5,49.0,40.7,34.0,95,70,49,30.22,29.95,13,5,22,0.00
2014-10-13,58.2,54.3,50.4,55.0,53.2,49.0,98,96,89,29.94,29.58,9,2,21,1.05
2014-10-14,55.1,51.9,49.9,55.0,51.0,47.0,98,97,88,29.86,29.54,8,1,18,0.97
2014-10-15,55.2,51.2,47.6,51.0,47.7,44.0,94,88,83,29.98,29.85,7,1,14,0.00
2014-10-16,66.3,55.5,48.0,54.0,49.9,47.0,98,83,60,29.96,29.66,11,2,14,0.00
2014-10-17,56.7,52.7,46.3,49.0,47.0,42.0,87,81,74,30.04,29.64,11,1,11,0.00
2014-10-18,53.0,46.5,37.8,44.0,38.9,35.0,90,76,53,30.30,30.05,6,1,12,0.00
2014-10-19,58.4,47.4,32.6,46.0,40.9,31.0,97,80,63,30.29,29.90,12,3,24,0.01
2014-10-20,63.9,54.2,47.5,47.0,44.4,41.0,88,71,49,30.13,29.89,4,1,13,0.00
2014-10-21,52.1,45.0,36.8,41.0,38.8,35.0,95,79,62,30.40,30.13,6,1,13,0.00
2014-10-22,58.9,44.4,28.9,42.0,36.0,28.0,97,76,48,30.47,30.30,10,2,15,0.00
2014-10-23,49.9,46.7,42.7,49.0,43.0,36.0,98,87,68,30.30,30.13,10,2,15,0.29
2014-10-24,62.1,54.1,47.7,57.0,51.5,47.0,99,91,71,30.16,29.98,10,2,14,0.01
2014-10-25,69.1,59.1,51.0,57.0,42.3,28.0,97,60,25,30.09,29.98,5,1,16,0.00
2014-10-26,65.5,53.3,36.7,36.0,30.7,27.0,78,45,24,30.13,29.85,10,2,13,0.00
2014-10-27,74.6,65.6,57.1,61.0,52.8,31.0,80,64,36,29.84,29.56,12,4,21,0.00
2014-10-28,62.6,49.8,44.5,54.0,40.1,35.0,86,70,57,30.05,29.67,8,2,14,0.00
2014-10-29,51.0,43.7,37.5,35.0,33.4,32.0,81,68,54,30.24,30.05,5,1,13,0.00
2014-10-30,49.2,41.8,33.7,40.0,36.2,32.0,95,81,65,30.24,30.17,5,0,19,0.00
2014-10-31,43.3,35.7,29.5,32.0,22.8,19.0,86,60,46,30.60,30.23,21,4,25,0.00
2014-11-1,45.3,33.8,22.9,25.0,22.2,19.0,86,64,44,30.64,30.48,6,2,10,0.00
2014-11-2,52.9,42.6,33.4,30.0,25.4,21.0,76,54,29,30.48,30.18,20,8,28,0.00
2014-11-3,61.6,51.9,41.2,56.0,38.1,26.0,93,60,51,30.17,29.89,15,6,20,0.12
2014-11-4,58.9,50.0,42.8,57.0,40.9,33.0,94,72,51,30.13,29.86,16,3,19,0.00
2014-11-5,53.6,45.4,37.0,42.0,37.2,32.0,85,73,58,30.20,29.93,11,2,18,0.00
2014-11-6,46.0,39.2,34.9,42.0,32.6,27.0,88,77,66,30.38,29.91,15,3,21,0.00
2014-11-7,41.8,37.6,30.1,35.0,28.6,25.0,82,71,58,30.35,29.82,15,5,21,0.02
2014-11-8,46.5,40.9,36.4,39.0,29.6,24.0,90,65,48,30.07,29.81,8,2,17,0.00
2014-11-9,50.8,42.4,37.0,37.0,32.3,28.0,90,68,51,30.02,29.83,11,3,20,0.02
2014-11-10,57.0,43.8,35.7,45.0,39.1,34.0,96,85,63,29.93,29.55,9,3,19,0.00
2014-11-11,38.5,32.1,25.1,37.0,28.0,18.0,95,85,73,30.32,29.73,9,2,19,0.03
2014-11-12,26.5,23.8,19.4,19.0,16.8,14.0,81,74,67,30.46,30.33,6,2,11,0.00
2014-11-13,27.9,24.4,22.6,21.0,18.4,17.0,86,78,64,30.48,30.43,7,2,12,0.00
2014-11-14,27.9,21.9,14.8,18.0,14.9,11.0,88,75,56,30.52,30.46,3,1,8,0.01
2014-11-15,24.9,18.5,11.2,19.0,15.0,9.0,92,86,65,30.52,30.34,4,1,7,0.00
2014-11-16,27.1,20.4,8.4,23.0,16.9,5.0,92,86,76,30.34,30.03,7,2,13,0.00
2014-11-17,16.3,10.9,7.6,9.0,6.1,4.0,90,80,66,30.13,30.00,4,1,11,0.00
2014-11-18,17.5,13.5,6.5,11.0,6.5,3.0,85,74,64,30.22,30.10,9,2,14,0.00
2014-11-19,28.1,21.5,16.2,20.0,14.5,11.0,82,74,62,30.11,29.91,12,3,17,0.00
2014-11-20,25.5,17.7,10.5,14.0,6.7,1.0,86,64,37,30.48,30.11,6,1,19,0.00
2014-11-21,32.9,20.7,5.2,21.0,8.5,2.0,89,62,43,30.57,30.23,19,5,23,0.00
2014-11-22,52.4,40.7,31.3,51.0,38.8,23.0,97,93,69,30.22,29.82,13,6,19,0.01
2014-11-23,51.7,48.9,46.6,50.0,47.9,46.0,98,96,92,29.82,29.22,13,6,22,0.70
2014-11-24,46.4,31.4,20.0,46.0,30.5,18.0,98,96,93,29.95,29.18,6,1,10,0.05
2014-11-25,28.0,21.0,15.6,23.0,18.2,13.0,93,88,81,30.31,29.95,7,1,9,0.08
2014-11-26,23.1,18.0,12.7,21.0,16.3,11.0,95,92,90,30.42,30.26,5,1,10,0.00
2014-11-27,22.5,17.7,10.4,21.0,13.3,4.0,95,83,71,30.58,30.42,3,1,9,0.05
2014-11-28,28.9,21.5,11.8,27.0,17.2,7.0,94,83,71,30.51,29.93,10,4,17,0.00
2014-11-29,47.9,39.8,29.2,45.0,36.9,28.0,95,89,78,29.91,29.60,13,4,16,0.07
2014-11-30,44.0,28.3,15.5,43.0,22.2,7.0,97,79,59,30.56,29.67,7,2,15,0.00
2014-12-1,15.3,10.6,5.1,7.0,-0.5,-4.0,77,62,48,30.87,30.56,9,2,14,0.00
2014-12-2,30.3,21.4,5.8,21.0,15.0,0.0,90,77,60,30.73,30.16,11,4,15,0.00
2014-12-3,32.7,25.3,22.0,21.0,18.3,16.0,84,75,51,30.37,30.16,4,2,9,0.00
2014-12-4,29.8,26.4,24.8,24.0,14.5,9.0,78,60,45,30.53,0.00,11,3,13,0.00
2014-12-5,36.4,32.9,29.8,33.0,30.3,24.0,95,90,78,30.45,30.30,6,2,9,0.00
2014-12-6,36.6,30.5,24.3,30.0,23.5,18.0,92,76,56,30.81,30.46,6,2,15,0.00
2014-12-7,35.3,29.4,20.9,29.0,22.7,18.0,93,77,52,30.79,30.34,15,5,22,0.00
2014-12-8,34.8,32.8,30.3,34.0,31.7,28.0,97,95,89,30.33,30.08,12,2,15,0.21
2014-12-9,33.1,30.6,28.1,29.0,27.3,25.0,92,87,80,30.56,30.31,6,1,13,0.01
2014-12-10,27.8,25.1,23.0,25.0,22.8,21.0,93,91,88,30.58,30.44,7,1,7,0.00
2014-12-11,32.5,25.5,22.4,26.0,22.8,21.0,94,89,77,30.45,30.37,4,1,8,0.00
2014-12-12,35.9,32.0,26.0,35.0,30.8,25.0,97,95,92,30.45,30.33,7,2,11,0.00
2014-12-13,44.5,39.6,33.3,44.0,38.9,32.0,98,97,94,30.34,30.16,6,2,9,0.00
2014-12-14,47.4,45.9,43.7,47.0,45.4,43.0,99,98,97,30.16,30.03,12,4,13,0.00
2014-12-15,46.5,45.1,43.3,46.0,44.6,43.0,99,97,96,30.03,29.75,12,4,17,0.25
2014-12-16,43.2,34.7,23.7,43.0,32.5,20.0,99,91,83,30.31,29.75,9,2,17,0.18
2014-12-17,23.6,22.0,17.2,20.0,17.6,15.0,89,83,79,30.48,30.31,4,1,13,0.00
2014-12-18,25.1,21.1,14.6,22.0,18.3,13.0,94,89,84,30.47,30.41,3,0,7,0.00
2014-12-19,28.1,25.7,23.9,23.0,21.7,21.0,89,85,78,30.47,30.39,4,1,7,0.00
2014-12-20,30.6,28.5,26.2,28.0,26.1,23.0,94,90,88,30.42,30.32,7,3,12,0.00
2014-12-21,37.1,34.3,30.2,35.0,32.4,28.0,97,92,88,30.32,30.04,17,8,23,0.01
2014-12-22,37.0,35.3,34.1,36.0,33.4,32.0,98,93,87,30.03,29.68,10,4,20,0.17
2014-12-23,41.2,38.2,34.6,41.0,37.6,34.0,99,97,95,29.86,29.61,12,3,19,0.34
2014-12-24,34.6,34.0,33.7,34.0,33.5,32.0,99,98,93,29.83,29.66,3,0,6,0.02
2014-12-25,42.0,36.5,31.3,36.0,32.4,29.0,92,85,74,30.03,29.77,12,5,20,0.01
2014-12-26,45.8,39.8,34.4,37.0,35.6,33.0,96,85,71,30.11,30.00,12,3,17,0.00
2014-12-27,40.7,32.6,21.2,40.0,30.5,18.0,98,91,84,30.27,29.95,4,1,14,0.07
2014-12-28,33.1,23.8,15.3,23.0,18.7,13.0,91,81,65,30.43,30.26,8,1,14,0.00
2014-12-29,22.9,18.1,7.0,17.0,10.4,1.0,87,72,54,30.77,30.44,7,2,12,0.00
2014-12-30,14.8,6.8,1.3,1.0,-3.6,-7.0,79,64,43,30.92,30.77,5,1,11,0.00
2014-12-31,18.9,9.4,-1.9,9.0,0.8,-6.0,83,69,49,30.81,30.23,16,3,19,0.00
2015-1-1,31.1,21.6,12.6,21.0,14.6,7.0,82,74,61,30.27,30.05,7,2,13,0.00
2015-1-2,31.7,26.5,20.0,23.0,19.9,14.0,89,76,60,30.43,30.27,6,1,7,0.00